createdAt,value
2019-04-10T00:00:11.191Z,86.96
2019-04-10T00:00:44.132Z,87.02
2019-04-10T00:01:15.506Z,86.90
2019-04-10T00:01:46.855Z,86.97
2019-04-10T00:02:18.112Z,86.89
2019-04-10T00:02:50.109Z,86.93
2019-04-10T00:03:28.929Z,86.91
2019-04-10T00:03:54.542Z,86.90
2019-04-10T00:04:25.802Z,86.90
2019-04-10T00:04:57.019Z,86.91
2019-04-10T00:05:28.226Z,87.08
2019-04-10T00:06:00.428Z,86.86
2019-04-10T00:06:32.004Z,86.89
2019-04-10T00:07:12.671Z,87.03
2019-04-10T00:07:36.253Z,87.17
2019-04-10T00:08:08.207Z,87.24
2019-04-10T00:08:39.499Z,87.39
2019-04-10T00:09:10.706Z,87.57
2019-04-10T00:09:41.911Z,87.71
2019-04-10T00:10:13.891Z,87.46
2019-04-10T00:10:45.836Z,87.63
2019-04-10T00:11:17.111Z,88.14
2019-04-10T00:11:49.143Z,87.85
2019-04-10T00:12:21.230Z,87.63
2019-04-10T00:12:52.437Z,87.68
2019-04-10T00:13:24.630Z,87.97
2019-04-10T00:13:55.925Z,87.57
2019-04-10T00:14:28.173Z,87.55
2019-04-10T00:14:59.445Z,87.91
2019-04-10T00:15:30.704Z,88.02
2019-04-10T00:16:01.869Z,87.55
2019-04-10T00:16:42.508Z,87.73
2019-04-10T00:17:13.888Z,87.96
2019-04-10T00:17:45.143Z,88.47
2019-04-10T00:18:16.352Z,88.58
2019-04-10T00:18:48.458Z,88.75
2019-04-10T00:19:20.329Z,88.78
2019-04-10T00:19:51.925Z,88.84
2019-04-10T00:20:23.165Z,88.94
2019-04-10T00:20:54.379Z,89.01
2019-04-10T00:21:25.581Z,89.77
2019-04-10T00:21:57.776Z,89.97
2019-04-10T00:22:29.038Z,90.05
2019-04-10T00:23:00.399Z,90.29
2019-04-10T00:23:31.641Z,90.63
2019-04-10T00:24:03.884Z,90.91
2019-04-10T00:24:35.709Z,91.01
2019-04-10T00:25:06.939Z,91.36
2019-04-10T00:25:39.165Z,91.35
2019-04-10T00:26:10.437Z,91.48
2019-04-10T00:26:41.749Z,91.86
2019-04-10T00:27:12.974Z,91.62
2019-04-10T00:27:45.080Z,91.49
2019-04-10T00:28:17.035Z,91.48
2019-04-10T00:28:48.321Z,91.86
2019-04-10T00:29:20.310Z,92.25
2019-04-10T00:29:52.338Z,92.39
2019-04-10T00:30:23.609Z,92.37
2019-04-10T00:30:55.635Z,92.57
2019-04-10T00:31:26.911Z,92.27
2019-04-10T00:32:01.343Z,92.43
2019-04-10T00:32:32.081Z,92.78
2019-04-10T00:33:03.298Z,93.12
2019-04-10T00:33:34.717Z,93.29
2019-04-10T00:34:05.956Z,93.51
2019-04-10T00:34:37.931Z,93.56
2019-04-10T00:35:09.160Z,93.69
2019-04-10T00:35:40.415Z,93.62
2019-04-10T00:36:12.119Z,93.53
2019-04-10T00:36:43.626Z,93.63
2019-04-10T00:37:23.955Z,93.78
2019-04-10T00:37:47.836Z,93.71
2019-04-10T00:38:19.831Z,93.82
2019-04-10T00:38:51.047Z,93.91
2019-04-10T00:39:22.358Z,93.99
2019-04-10T00:39:53.557Z,93.96
2019-04-10T00:40:25.616Z,94.09
2019-04-10T00:40:57.537Z,94.18
2019-04-10T00:41:28.765Z,94.35
2019-04-10T00:42:00.888Z,94.29
2019-04-10T00:42:32.810Z,94.49
2019-04-10T00:43:04.087Z,94.74
2019-04-10T00:43:35.313Z,94.67
2019-04-10T00:44:07.713Z,94.82
2019-04-10T00:44:39.657Z,94.90
2019-04-10T00:45:11.273Z,94.96
2019-04-10T00:45:42.506Z,95.11
2019-04-10T00:46:13.732Z,95.26
2019-04-10T00:46:45.033Z,95.33
2019-04-10T00:47:17.029Z,95.38
2019-04-10T00:47:48.472Z,95.37
2019-04-10T00:48:19.706Z,95.49
2019-04-10T00:48:50.928Z,95.64
2019-04-10T00:49:22.232Z,95.62
2019-04-10T00:49:53.728Z,95.59
2019-04-10T00:50:24.935Z,95.79
2019-04-10T00:50:57.086Z,95.97
2019-04-10T00:51:28.362Z,96.15
2019-04-10T00:51:59.655Z,96.28
2019-04-10T00:52:30.918Z,96.46
2019-04-10T00:53:02.943Z,96.48
2019-04-10T00:53:34.918Z,96.56
2019-04-10T00:54:06.205Z,96.71
2019-04-10T00:54:37.455Z,96.82
2019-04-10T00:55:08.700Z,97.00
2019-04-10T00:55:39.970Z,97.23
2019-04-10T00:56:11.215Z,97.19
2019-04-10T00:56:43.357Z,97.03
2019-04-10T00:57:15.027Z,97.03
2019-04-10T00:57:46.310Z,97.18
2019-04-10T00:58:18.301Z,97.29
2019-04-10T00:58:49.569Z,97.26
2019-04-10T00:59:20.932Z,97.24
2019-04-10T00:59:52.594Z,97.25
2019-04-10T01:00:24.066Z,97.32
2019-04-10T01:00:55.284Z,97.40
2019-04-10T01:01:27.658Z,97.37
2019-04-10T01:01:58.882Z,97.42
2019-04-10T01:02:30.588Z,97.42
2019-04-10T01:03:02.005Z,97.48
2019-04-10T01:03:33.711Z,97.45
2019-04-10T01:04:04.959Z,97.45
2019-04-10T01:04:36.247Z,97.44
2019-04-10T01:05:07.591Z,97.44
2019-04-10T01:05:39.645Z,97.42
2019-04-10T01:06:11.499Z,97.43
2019-04-10T01:06:42.848Z,97.48
2019-04-10T01:07:14.791Z,97.45
2019-04-10T01:07:47.098Z,97.41
2019-04-10T01:08:18.600Z,97.40
2019-04-10T01:08:52.997Z,97.46
2019-04-10T01:09:25.621Z,97.48
2019-04-10T01:09:57.587Z,97.58
2019-04-10T01:10:30.451Z,97.59
2019-04-10T01:11:02.868Z,97.69
2019-04-10T01:11:34.971Z,97.82
2019-04-10T01:12:06.438Z,97.78
2019-04-10T01:12:38.362Z,97.74
2019-04-10T01:13:10.645Z,97.75
2019-04-10T01:13:41.902Z,97.77
2019-04-10T01:14:13.739Z,97.68
2019-04-10T01:14:45.649Z,97.56
2019-04-10T01:15:17.033Z,97.57
2019-04-10T01:15:49.080Z,97.58
2019-04-10T01:16:20.840Z,97.52
2019-04-10T01:17:04.432Z,97.47
2019-04-10T01:17:36.620Z,97.39
2019-04-10T01:18:10.942Z,97.43
2019-04-10T01:18:42.225Z,97.50
2019-04-10T01:19:15.449Z,97.55
2019-04-10T01:19:46.872Z,97.63
2019-04-10T01:20:18.206Z,97.72
2019-04-10T01:20:50.170Z,97.79
2019-04-10T01:21:22.163Z,97.83
2019-04-10T01:21:54.855Z,97.89
2019-04-10T01:22:27.407Z,97.94
2019-04-10T01:22:59.747Z,98.05
2019-04-10T01:23:31.051Z,98.03
2019-04-10T01:24:03.624Z,98.08
2019-04-10T01:24:37.684Z,98.08
2019-04-10T01:25:09.028Z,98.16
2019-04-10T01:25:40.882Z,98.31
2019-04-10T01:26:12.798Z,98.47
2019-04-10T01:26:45.517Z,98.43
2019-04-10T01:27:17.813Z,98.47
2019-04-10T01:27:50.038Z,98.47
2019-04-10T01:28:22.620Z,98.64
2019-04-10T01:28:54.276Z,98.79
2019-04-10T01:29:27.275Z,98.80
2019-04-10T01:30:02.354Z,98.80
2019-04-10T01:30:34.721Z,98.91
2019-04-10T01:31:06.744Z,98.89
2019-04-10T01:31:39.419Z,98.84
2019-04-10T01:32:11.907Z,98.60
2019-04-10T01:32:43.981Z,98.40
2019-04-10T01:33:16.369Z,98.33
2019-04-10T01:33:47.851Z,98.30
2019-04-10T01:34:19.151Z,98.29
2019-04-10T01:34:52.485Z,98.26
2019-04-10T01:35:24.651Z,98.32
2019-04-10T01:35:58.451Z,98.35
2019-04-10T01:36:33.301Z,98.39
2019-04-10T01:37:06.793Z,98.46
2019-04-10T01:37:48.770Z,98.51
2019-04-10T01:38:12.140Z,98.58
2019-04-10T01:38:43.843Z,98.63
2019-04-10T01:39:16.424Z,98.67
2019-04-10T01:39:48.611Z,98.72
2019-04-10T01:40:23.417Z,98.86
2019-04-10T01:40:55.674Z,98.93
2019-04-10T01:41:27.834Z,98.98
2019-04-10T01:42:00.590Z,98.94
2019-04-10T01:42:34.196Z,98.99
2019-04-10T01:43:12.471Z,99.02
2019-04-10T01:43:39.584Z,99.06
2019-04-10T01:44:11.110Z,99.08
2019-04-10T01:44:45.438Z,99.14
2019-04-10T01:45:17.490Z,99.14
2019-04-10T01:45:49.519Z,99.11
2019-04-10T01:46:22.300Z,99.16
2019-04-10T01:46:54.891Z,99.23
2019-04-10T01:47:26.919Z,99.34
2019-04-10T01:47:59.508Z,99.44
2019-04-10T01:48:32.076Z,99.46
2019-04-10T01:49:05.200Z,99.38
2019-04-10T01:49:37.965Z,99.40
2019-04-10T01:50:09.187Z,99.38
2019-04-10T01:50:41.090Z,99.26
2019-04-10T01:51:17.230Z,99.29
2019-04-10T01:51:49.731Z,99.39
2019-04-10T01:52:21.119Z,99.48
2019-04-10T01:52:53.496Z,99.48
2019-04-10T01:53:26.719Z,99.44
2019-04-10T01:53:58.514Z,99.39
2019-04-10T01:54:29.866Z,99.29
2019-04-10T01:55:03.173Z,99.26
2019-04-10T01:55:35.715Z,99.30
2019-04-10T01:56:21.154Z,99.20
2019-04-10T01:56:41.593Z,99.11
2019-04-10T01:57:14.652Z,99.14
2019-04-10T01:57:46.825Z,99.14
2019-04-10T01:58:19.082Z,99.15
2019-04-10T01:58:51.697Z,99.03
2019-04-10T01:59:23.601Z,98.98
2019-04-10T01:59:55.038Z,98.84
2019-04-10T02:00:26.321Z,98.79
2019-04-10T02:00:57.625Z,98.89
2019-04-10T02:01:29.428Z,98.94
2019-04-10T02:02:01.085Z,98.99
2019-04-10T02:02:32.359Z,99.07
2019-04-10T02:03:03.649Z,99.11
2019-04-10T02:03:34.911Z,99.16
2019-04-10T02:04:06.806Z,99.14
2019-04-10T02:04:38.142Z,99.07
2019-04-10T02:05:09.433Z,98.98
2019-04-10T02:05:40.845Z,98.93
2019-04-10T02:06:12.142Z,98.87
2019-04-10T02:06:43.408Z,98.87
2019-04-10T02:07:14.675Z,98.84
2019-04-10T02:07:57.842Z,98.80
2019-04-10T02:08:19.058Z,98.77
2019-04-10T02:08:50.531Z,98.79
2019-04-10T02:09:23.448Z,98.79
2019-04-10T02:09:54.675Z,98.71
2019-04-10T02:10:25.991Z,98.65
2019-04-10T02:10:57.305Z,98.59
2019-04-10T02:11:28.559Z,98.64
2019-04-10T02:11:59.842Z,98.66
2019-04-10T02:12:31.136Z,98.67
2019-04-10T02:13:03.225Z,98.62
2019-04-10T02:13:34.603Z,98.62
2019-04-10T02:14:05.827Z,98.65
2019-04-10T02:14:37.072Z,98.66
2019-04-10T02:15:13.905Z,98.73
2019-04-10T02:15:43.996Z,98.72
2019-04-10T02:16:15.354Z,98.78
2019-04-10T02:16:47.309Z,98.78
2019-04-10T02:17:18.568Z,98.77
2019-04-10T02:17:49.851Z,98.75
2019-04-10T02:18:21.496Z,98.63
2019-04-10T02:18:52.784Z,98.57
2019-04-10T02:19:24.083Z,98.53
2019-04-10T02:19:55.424Z,98.55
2019-04-10T02:20:27.775Z,98.66
2019-04-10T02:20:59.257Z,98.73
2019-04-10T02:21:30.512Z,98.78
2019-04-10T02:22:02.416Z,98.68
2019-04-10T02:22:34.329Z,98.66
2019-04-10T02:23:05.881Z,98.66
2019-04-10T02:23:38.573Z,98.66
2019-04-10T02:24:09.869Z,98.66
2019-04-10T02:24:41.120Z,98.67
2019-04-10T02:25:12.466Z,98.66
2019-04-10T02:25:45.144Z,98.65
2019-04-10T02:26:17.103Z,98.68
2019-04-10T02:26:48.397Z,98.78
2019-04-10T02:27:20.665Z,98.87
2019-04-10T02:27:51.952Z,98.82
2019-04-10T02:28:24.211Z,98.89
2019-04-10T02:28:55.634Z,98.89
2019-04-10T02:29:27.978Z,98.82
2019-04-10T02:29:59.944Z,98.67
2019-04-10T02:30:33.006Z,98.69
2019-04-10T02:31:07.036Z,98.81
2019-04-10T02:31:39.050Z,98.93
2019-04-10T02:32:12.064Z,99.04
2019-04-10T02:32:47.643Z,99.09
2019-04-10T02:33:19.193Z,99.12
2019-04-10T02:33:53.751Z,99.26
2019-04-10T02:34:25.166Z,99.13
2019-04-10T02:34:58.235Z,99.13
2019-04-10T02:35:29.895Z,99.21
2019-04-10T02:36:01.566Z,99.19
2019-04-10T02:36:35.794Z,99.27
2019-04-10T02:37:08.648Z,99.30
2019-04-10T02:37:41.696Z,99.26
2019-04-10T02:38:30.950Z,99.20
2019-04-10T02:38:59.504Z,99.21
2019-04-10T02:39:29.763Z,99.18
2019-04-10T02:39:57.816Z,99.19
2019-04-10T02:40:26.655Z,99.15
2019-04-10T02:41:01.652Z,99.19
2019-04-10T02:41:34.579Z,99.23
2019-04-10T02:42:08.126Z,99.30
2019-04-10T02:42:41.022Z,99.33
2019-04-10T02:43:13.978Z,99.30
2019-04-10T02:43:47.330Z,99.28
2019-04-10T02:44:18.812Z,99.35
2019-04-10T02:44:52.022Z,99.30
2019-04-10T02:45:24.169Z,99.25
2019-04-10T02:45:57.586Z,99.17
2019-04-10T02:46:29.347Z,99.14
2019-04-10T02:47:01.993Z,99.00
2019-04-10T02:47:34.745Z,98.97
2019-04-10T02:48:08.090Z,99.03
2019-04-10T02:48:41.572Z,99.03
2019-04-10T02:49:14.452Z,99.07
2019-04-10T02:49:47.176Z,99.14
2019-04-10T02:50:20.670Z,99.21
2019-04-10T02:50:55.540Z,99.34
2019-04-10T02:51:27.165Z,99.42
2019-04-10T02:51:58.996Z,99.54
2019-04-10T02:52:30.780Z,99.61
2019-04-10T02:53:07.566Z,99.47
2019-04-10T02:53:39.449Z,99.44
2019-04-10T02:54:11.471Z,99.42
2019-04-10T02:54:43.651Z,99.46
2019-04-10T02:55:18.692Z,99.50
2019-04-10T02:55:51.593Z,99.58
2019-04-10T02:56:25.257Z,99.58
2019-04-10T02:56:56.948Z,99.56
2019-04-10T02:57:29.430Z,99.59
2019-04-10T02:58:02.672Z,99.55
2019-04-10T02:58:34.448Z,99.61
2019-04-10T02:59:07.350Z,99.70
2019-04-10T02:59:43.145Z,99.71
2019-04-10T03:00:18.047Z,99.77
2019-04-10T03:00:53.900Z,99.79
2019-04-10T03:01:23.526Z,99.75
2019-04-10T03:01:56.057Z,99.71
2019-04-10T03:02:29.434Z,99.70
2019-04-10T03:03:05.615Z,99.63
2019-04-10T03:03:40.310Z,99.68
2019-04-10T03:04:16.541Z,99.71
2019-04-10T03:04:49.236Z,99.76
2019-04-10T03:05:25.700Z,99.84
2019-04-10T03:06:02.520Z,99.90
2019-04-10T03:06:35.378Z,99.95
2019-04-10T03:07:09.543Z,100.00
2019-04-10T03:07:44.368Z,100.00
2019-04-10T03:09:26.006Z,100.00
2019-04-10T03:10:00.457Z,100.00
2019-04-10T03:10:29.852Z,100.00
2019-04-10T03:11:01.648Z,100.00
2019-04-10T03:11:31.301Z,100.00
2019-04-10T03:12:03.721Z,100.00
2019-04-10T03:12:36.415Z,100.00
2019-04-10T03:13:11.474Z,100.00
2019-04-10T03:13:43.050Z,100.00
2019-04-10T03:14:16.765Z,100.00
2019-04-10T03:14:49.845Z,100.00
2019-04-10T03:15:25.227Z,100.00
2019-04-10T03:15:57.792Z,100.00
2019-04-10T03:16:37.661Z,100.00
2019-04-10T03:17:12.236Z,100.00
2019-04-10T03:17:44.667Z,100.00
2019-04-10T03:18:16.817Z,100.00
2019-04-10T03:18:51.611Z,100.00
2019-04-10T03:19:25.538Z,100.00
2019-04-10T03:19:58.082Z,100.00
2019-04-10T03:20:30.129Z,100.00
2019-04-10T03:21:02.754Z,100.00
2019-04-10T03:21:35.360Z,100.00
2019-04-10T03:22:07.886Z,100.00
2019-04-10T03:22:41.019Z,100.00
2019-04-10T03:23:13.524Z,100.00
2019-04-10T03:23:45.427Z,100.00
2019-04-10T03:24:16.830Z,100.00
2019-04-10T03:24:48.520Z,100.00
2019-04-10T03:25:24.564Z,100.00
2019-04-10T03:25:57.053Z,100.00
2019-04-10T03:26:29.811Z,100.00
2019-04-10T03:27:01.806Z,100.00
2019-04-10T03:27:34.423Z,100.00
2019-04-10T03:28:09.105Z,100.00
2019-04-10T03:28:40.960Z,100.00
2019-04-10T03:29:13.540Z,100.00
2019-04-10T03:29:46.376Z,100.00
2019-04-10T03:30:20.617Z,100.00
2019-04-10T03:30:53.865Z,100.00
2019-04-10T03:31:27.187Z,100.00
2019-04-10T03:31:59.516Z,100.00
2019-04-10T03:32:36.404Z,100.00
2019-04-10T03:33:09.346Z,100.00
2019-04-10T03:33:42.890Z,100.00
2019-04-10T03:34:14.254Z,100.00
2019-04-10T03:34:47.502Z,100.00
2019-04-10T03:35:18.731Z,99.94
2019-04-10T03:35:51.416Z,99.88
2019-04-10T03:36:23.240Z,99.93
2019-04-10T03:36:55.931Z,100.00
2019-04-10T03:37:28.530Z,100.00
2019-04-10T03:37:59.978Z,100.00
2019-04-10T03:38:32.153Z,100.00
2019-04-10T03:39:06.168Z,100.00
2019-04-10T03:39:36.483Z,100.00
2019-04-10T03:40:08.117Z,100.00
2019-04-10T03:40:39.759Z,100.00
2019-04-10T03:41:12.393Z,100.00
2019-04-10T03:41:44.277Z,100.00
2019-04-10T03:42:16.735Z,100.00
2019-04-10T03:42:48.174Z,100.00
2019-04-10T03:43:19.530Z,100.00
2019-04-10T03:43:50.831Z,100.00
2019-04-10T03:44:22.860Z,100.00
2019-04-10T03:44:54.874Z,100.00
2019-04-10T03:45:26.494Z,100.00
2019-04-10T03:45:59.121Z,100.00
2019-04-10T03:46:30.454Z,100.00
2019-04-10T03:47:02.832Z,100.00
2019-04-10T03:47:34.160Z,100.00
2019-04-10T03:48:06.410Z,100.00
2019-04-10T03:48:38.896Z,100.00
2019-04-10T03:49:11.800Z,100.00
2019-04-10T03:49:44.247Z,100.00
2019-04-10T03:50:16.333Z,100.00
2019-04-10T03:50:50.263Z,100.00
2019-04-10T03:51:22.761Z,100.00
2019-04-10T03:51:55.439Z,100.00
2019-04-10T03:52:27.450Z,100.00
2019-04-10T03:53:00.355Z,100.00
2019-04-10T03:53:32.138Z,100.00
2019-04-10T03:54:04.726Z,100.00
2019-04-10T03:54:36.296Z,100.00
2019-04-10T03:55:08.958Z,100.00
2019-04-10T03:55:40.992Z,100.00
2019-04-10T03:56:12.350Z,100.00
2019-04-10T03:56:43.651Z,100.00
2019-04-10T03:57:14.991Z,100.00
2019-04-10T03:57:46.931Z,100.00
2019-04-10T03:58:19.694Z,100.00
2019-04-10T03:58:53.246Z,100.00
2019-04-10T03:59:24.557Z,100.00
2019-04-10T03:59:56.040Z,100.00
2019-04-10T04:00:28.367Z,100.00
2019-04-10T04:01:00.756Z,100.00
2019-04-10T04:01:33.394Z,100.00
2019-04-10T04:02:05.271Z,100.00
2019-04-10T04:02:38.090Z,100.00
2019-04-10T04:03:10.579Z,100.00
2019-04-10T04:03:42.681Z,100.00
2019-04-10T04:04:13.965Z,100.00
2019-04-10T04:04:46.022Z,100.00
2019-04-10T04:05:18.291Z,100.00
2019-04-10T04:05:49.690Z,100.00
2019-04-10T04:06:21.719Z,99.94
2019-04-10T04:06:53.019Z,99.86
2019-04-10T04:07:26.940Z,99.83
2019-04-10T04:07:59.179Z,99.78
2019-04-10T04:08:31.913Z,99.81
2019-04-10T04:09:09.361Z,99.76
2019-04-10T04:09:39.774Z,99.72
2019-04-10T04:10:11.044Z,99.79
2019-04-10T04:10:42.697Z,99.77
2019-04-10T04:11:17.536Z,99.86
2019-04-10T04:11:48.881Z,99.85
2019-04-10T04:12:20.513Z,99.84
2019-04-10T04:12:51.818Z,99.87
2019-04-10T04:13:23.683Z,99.91
2019-04-10T04:13:55.618Z,99.98
2019-04-10T04:14:27.018Z,100.00
2019-04-10T04:14:59.113Z,99.96
2019-04-10T04:15:30.535Z,99.94
2019-04-10T04:16:02.267Z,99.93
2019-04-10T04:16:35.318Z,99.85
2019-04-10T04:17:06.582Z,99.87
2019-04-10T04:17:38.031Z,99.82
2019-04-10T04:18:09.318Z,99.79
2019-04-10T04:18:41.489Z,99.76
2019-04-10T04:19:13.540Z,99.78
2019-04-10T04:19:45.066Z,99.78
2019-04-10T04:20:16.935Z,99.84
2019-04-10T04:20:48.456Z,99.92
2019-04-10T04:21:20.576Z,99.96
2019-04-10T04:21:52.362Z,99.99
2019-04-10T04:22:25.061Z,100.00
2019-04-10T04:22:57.080Z,100.00
2019-04-10T04:23:28.466Z,99.99
2019-04-10T04:23:59.750Z,100.00
2019-04-10T04:24:31.550Z,100.00
2019-04-10T04:25:04.596Z,99.96
2019-04-10T04:25:37.090Z,99.96
2019-04-10T04:26:08.765Z,99.97
2019-04-10T04:26:40.453Z,99.92
2019-04-10T04:27:11.751Z,99.83
2019-04-10T04:27:44.125Z,99.76
2019-04-10T04:28:15.564Z,99.75
2019-04-10T04:28:49.427Z,99.83
2019-04-10T04:29:21.078Z,99.76
2019-04-10T04:29:52.411Z,99.79
2019-04-10T04:30:24.678Z,99.85
2019-04-10T04:30:56.803Z,99.88
2019-04-10T04:31:31.217Z,99.93
2019-04-10T04:32:02.559Z,100.00
2019-04-10T04:32:33.897Z,100.00
2019-04-10T04:33:06.650Z,99.89
2019-04-10T04:33:39.049Z,99.93
2019-04-10T04:34:12.269Z,99.92
2019-04-10T04:34:43.938Z,99.92
2019-04-10T04:35:15.717Z,100.00
2019-04-10T04:35:47.422Z,100.00
2019-04-10T04:36:20.317Z,100.00
2019-04-10T04:36:53.323Z,100.00
2019-04-10T04:37:25.779Z,100.00
2019-04-10T04:37:58.299Z,99.99
2019-04-10T04:38:29.668Z,100.00
2019-04-10T04:39:12.778Z,99.98
2019-04-10T04:39:34.951Z,99.87
2019-04-10T04:40:06.306Z,99.86
2019-04-10T04:40:37.783Z,99.92
2019-04-10T04:41:09.095Z,99.88
2019-04-10T04:41:40.382Z,99.86
2019-04-10T04:42:12.642Z,99.84
2019-04-10T04:42:44.109Z,99.85
2019-04-10T04:43:15.344Z,99.91
2019-04-10T04:43:47.659Z,100.00
2019-04-10T04:44:20.292Z,100.00
2019-04-10T04:44:52.112Z,100.00
2019-04-10T04:45:23.539Z,100.00
2019-04-10T04:45:55.419Z,99.88
2019-04-10T04:46:26.729Z,99.86
2019-04-10T04:46:58.887Z,99.86
2019-04-10T04:47:30.995Z,99.84
2019-04-10T04:48:02.284Z,99.74
2019-04-10T04:48:34.276Z,99.72
2019-04-10T04:49:05.514Z,99.75
2019-04-10T04:49:37.752Z,99.68
2019-04-10T04:50:09.773Z,99.54
2019-04-10T04:50:41.608Z,99.52
2019-04-10T04:51:12.909Z,99.57
2019-04-10T04:51:44.125Z,99.57
2019-04-10T04:52:16.267Z,99.54
2019-04-10T04:52:47.626Z,99.51
2019-04-10T04:53:18.850Z,99.29
2019-04-10T04:53:50.492Z,99.21
2019-04-10T04:54:21.756Z,99.20
2019-04-10T04:54:53.284Z,99.15
2019-04-10T04:55:24.620Z,99.18
2019-04-10T04:55:55.804Z,99.18
2019-04-10T04:56:28.129Z,99.16
2019-04-10T04:57:00.148Z,99.12
2019-04-10T04:57:34.188Z,99.08
2019-04-10T04:58:04.424Z,98.99
2019-04-10T04:58:36.071Z,98.95
2019-04-10T04:59:08.012Z,98.91
2019-04-10T04:59:39.246Z,98.80
2019-04-10T05:00:10.464Z,98.59
2019-04-10T05:00:41.829Z,98.47
2019-04-10T05:01:13.040Z,98.43
2019-04-10T05:01:44.788Z,98.43
2019-04-10T05:02:16.021Z,98.49
2019-04-10T05:02:48.176Z,98.67
2019-04-10T05:03:19.418Z,98.73
2019-04-10T05:03:50.654Z,98.71
2019-04-10T05:04:22.909Z,98.68
2019-04-10T05:04:54.154Z,98.65
2019-04-10T05:05:25.419Z,98.55
2019-04-10T05:05:56.635Z,98.42
2019-04-10T05:06:27.838Z,98.44
2019-04-10T05:06:59.915Z,98.52
2019-04-10T05:07:31.334Z,98.45
2019-04-10T05:08:04.338Z,98.23
2019-04-10T05:08:35.550Z,98.14
2019-04-10T05:09:06.830Z,98.11
2019-04-10T05:09:39.335Z,98.13
2019-04-10T05:10:11.205Z,98.15
2019-04-10T05:10:42.472Z,98.13
2019-04-10T05:11:13.913Z,98.12
2019-04-10T05:11:45.181Z,98.12
2019-04-10T05:12:16.677Z,97.82
2019-04-10T05:12:49.514Z,97.73
2019-04-10T05:13:20.754Z,97.61
2019-04-10T05:13:53.006Z,97.58
2019-04-10T05:14:24.277Z,97.46
2019-04-10T05:14:55.785Z,97.29
2019-04-10T05:15:27.034Z,97.37
2019-04-10T05:15:58.244Z,97.36
2019-04-10T05:16:29.484Z,97.22
2019-04-10T05:17:00.679Z,96.99
2019-04-10T05:17:32.968Z,96.90
2019-04-10T05:18:04.296Z,96.77
2019-04-10T05:18:35.515Z,96.77
2019-04-10T05:19:06.734Z,96.83
2019-04-10T05:19:38.314Z,96.98
2019-04-10T05:20:09.573Z,97.16
2019-04-10T05:20:45.917Z,97.30
2019-04-10T05:21:13.838Z,97.26
2019-04-10T05:21:45.647Z,97.11
2019-04-10T05:22:16.939Z,96.76
2019-04-10T05:22:49.188Z,96.59
2019-04-10T05:23:22.278Z,96.62
2019-04-10T05:23:53.620Z,96.67
2019-04-10T05:24:24.851Z,96.39
2019-04-10T05:24:56.408Z,96.38
2019-04-10T05:25:27.681Z,96.61
2019-04-10T05:25:59.195Z,96.72
2019-04-10T05:26:32.360Z,96.74
2019-04-10T05:27:03.638Z,96.53
2019-04-10T05:27:35.042Z,96.46
2019-04-10T05:28:06.303Z,96.41
2019-04-10T05:28:38.129Z,96.50
2019-04-10T05:29:09.458Z,96.51
2019-04-10T05:29:40.956Z,96.65
2019-04-10T05:30:12.878Z,96.60
2019-04-10T05:30:45.056Z,96.35
2019-04-10T05:31:17.253Z,96.29
2019-04-10T05:31:48.967Z,96.37
2019-04-10T05:32:21.288Z,96.43
2019-04-10T05:32:52.778Z,96.23
2019-04-10T05:33:24.725Z,96.05
2019-04-10T05:33:56.042Z,95.90
2019-04-10T05:34:27.608Z,95.91
2019-04-10T05:34:58.866Z,95.94
2019-04-10T05:35:30.071Z,95.92
2019-04-10T05:36:01.400Z,95.98
2019-04-10T05:36:33.519Z,95.98
2019-04-10T05:37:05.297Z,95.85
2019-04-10T05:37:36.504Z,96.00
2019-04-10T05:38:08.051Z,96.19
2019-04-10T05:38:39.352Z,96.33
2019-04-10T05:39:10.710Z,96.26
2019-04-10T05:39:47.804Z,96.27
2019-04-10T05:40:15.273Z,96.28
2019-04-10T05:40:46.480Z,96.27
2019-04-10T05:41:17.731Z,96.06
2019-04-10T05:41:48.995Z,96.02
2019-04-10T05:42:20.643Z,96.14
2019-04-10T05:42:51.939Z,96.14
2019-04-10T05:43:23.997Z,96.14
2019-04-10T05:43:55.311Z,96.12
2019-04-10T05:44:27.650Z,95.95
2019-04-10T05:44:58.934Z,95.80
2019-04-10T05:45:30.168Z,95.56
2019-04-10T05:46:01.380Z,95.74
2019-04-10T05:46:32.619Z,95.61
2019-04-10T05:47:03.807Z,95.59
2019-04-10T05:47:35.085Z,95.54
2019-04-10T05:48:06.787Z,95.45
2019-04-10T05:48:38.107Z,95.33
2019-04-10T05:49:09.316Z,95.19
2019-04-10T05:49:41.463Z,95.14
2019-04-10T05:50:13.034Z,94.90
2019-04-10T05:50:53.900Z,94.70
2019-04-10T05:51:17.191Z,94.75
2019-04-10T05:51:48.478Z,94.86
2019-04-10T05:52:20.343Z,94.89
2019-04-10T05:52:51.834Z,95.04
2019-04-10T05:53:23.238Z,94.83
2019-04-10T05:53:55.438Z,94.69
2019-04-10T05:54:27.009Z,94.62
2019-04-10T05:54:58.278Z,94.50
2019-04-10T05:55:29.487Z,94.56
2019-04-10T05:56:01.507Z,94.53
2019-04-10T05:56:32.836Z,94.51
2019-04-10T05:57:04.181Z,94.42
2019-04-10T05:57:35.771Z,94.53
2019-04-10T05:58:07.212Z,94.66
2019-04-10T05:58:39.497Z,94.54
2019-04-10T05:59:12.090Z,94.40
2019-04-10T05:59:43.953Z,94.14
2019-04-10T06:00:16.627Z,93.93
2019-04-10T06:00:49.671Z,93.90
2019-04-10T06:01:31.428Z,93.77
2019-04-10T06:01:54.195Z,93.78
2019-04-10T06:02:27.138Z,93.87
2019-04-10T06:02:58.534Z,93.92
2019-04-10T06:03:30.310Z,93.86
2019-04-10T06:04:01.641Z,93.70
2019-04-10T06:04:33.575Z,93.48
2019-04-10T06:05:05.641Z,93.41
2019-04-10T06:05:37.012Z,93.39
2019-04-10T06:06:08.406Z,93.62
2019-04-10T06:06:39.855Z,93.45
2019-04-10T06:07:12.731Z,93.26
2019-04-10T06:07:44.029Z,92.74
2019-04-10T06:08:16.102Z,92.57
2019-04-10T06:08:47.385Z,92.30
2019-04-10T06:09:18.636Z,92.39
2019-04-10T06:09:55.955Z,92.21
2019-04-10T06:10:22.889Z,92.24
2019-04-10T06:10:54.128Z,92.40
2019-04-10T06:11:25.332Z,92.18
2019-04-10T06:11:57.352Z,92.31
2019-04-10T06:12:28.647Z,92.30
2019-04-10T06:13:00.505Z,92.39
2019-04-10T06:13:32.626Z,92.37
2019-04-10T06:14:03.904Z,92.47
2019-04-10T06:14:35.129Z,92.40
2019-04-10T06:15:06.505Z,91.38
2019-04-10T06:15:37.791Z,91.23
2019-04-10T06:16:09.769Z,91.59
2019-04-10T06:16:41.067Z,91.72
2019-04-10T06:17:12.304Z,91.63
2019-04-10T06:17:44.749Z,91.58
2019-04-10T06:18:16.046Z,91.28
2019-04-10T06:18:47.264Z,90.66
2019-04-10T06:19:18.503Z,90.50
2019-04-10T06:19:50.963Z,90.72
2019-04-10T06:20:25.059Z,90.84
2019-04-10T06:20:55.275Z,90.55
2019-04-10T06:21:27.283Z,90.19
2019-04-10T06:21:59.637Z,90.08
2019-04-10T06:22:30.851Z,90.18
2019-04-10T06:23:03.146Z,90.08
2019-04-10T06:23:34.468Z,90.14
2019-04-10T06:24:05.868Z,90.28
2019-04-10T06:24:38.377Z,89.99
2019-04-10T06:25:11.680Z,89.91
2019-04-10T06:25:43.539Z,90.03
2019-04-10T06:26:16.558Z,90.07
2019-04-10T06:26:48.008Z,90.20
2019-04-10T06:27:20.465Z,90.70
2019-04-10T06:27:52.639Z,90.62
2019-04-10T06:28:25.876Z,90.66
2019-04-10T06:28:57.425Z,90.49
2019-04-10T06:29:28.913Z,90.29
2019-04-10T06:30:00.101Z,90.42
2019-04-10T06:30:32.244Z,90.33
2019-04-10T06:31:04.129Z,90.38
2019-04-10T06:31:35.505Z,90.52
2019-04-10T06:32:07.361Z,91.06
2019-04-10T06:32:39.653Z,90.60
2019-04-10T06:33:11.731Z,90.39
2019-04-10T06:33:43.115Z,90.53
2019-04-10T06:34:16.986Z,90.26
2019-04-10T06:34:48.121Z,90.07
2019-04-10T06:35:19.757Z,90.21
2019-04-10T06:35:51.127Z,89.98
2019-04-10T06:36:22.333Z,90.23
2019-04-10T06:36:53.562Z,89.71
2019-04-10T06:37:24.781Z,89.29
2019-04-10T06:37:56.835Z,89.03
2019-04-10T06:38:28.802Z,88.96
2019-04-10T06:39:00.396Z,88.53
2019-04-10T06:39:31.707Z,87.83
2019-04-10T06:40:12.685Z,87.50
2019-04-10T06:40:36.099Z,87.89
2019-04-10T06:41:08.358Z,88.31
2019-04-10T06:41:39.574Z,88.17
2019-04-10T06:42:12.030Z,87.43
2019-04-10T06:42:49.779Z,87.04
2019-04-10T06:43:17.003Z,87.01
2019-04-10T06:43:48.294Z,87.22
2019-04-10T06:44:21.655Z,87.55
2019-04-10T06:44:52.973Z,87.29
2019-04-10T06:45:24.201Z,87.44
2019-04-10T06:45:55.810Z,87.66
2019-04-10T06:46:27.164Z,87.41
2019-04-10T06:46:58.373Z,87.30
2019-04-10T06:47:30.659Z,87.75
2019-04-10T06:48:02.682Z,87.54
2019-04-10T06:48:34.235Z,87.63
2019-04-10T06:49:06.101Z,87.52
2019-04-10T06:49:38.705Z,87.33
2019-04-10T06:50:10.651Z,88.20
2019-04-10T06:50:41.914Z,88.53
2019-04-10T06:51:13.219Z,87.48
2019-04-10T06:51:45.117Z,87.10
2019-04-10T06:52:16.712Z,86.87